Time;durP1;ratioP1;P1;durP2;ratioP2;P2;SDS_P1;SDS_P2;PMS_P1;PMS_P2;Temp;Humidity;BMP_temperature;BMP_pressure;BME280_temperature;BME280_humidity;BME280_pressure;Samples;Min_cycle;Max_cycle;Signal;HPM_P1;HPM_P2
2023/05/27 00:01:17;;;;;;;15.35;3.38;;;14.10;76.00;;;;;;5076685;28;20400;-79
2023/05/27 00:03:45;;;;;;;15.30;3.17;;;14.00;76.20;;;;;;5076251;28;20031;-80
2023/05/27 00:06:10;;;;;;;14.90;3.22;;;14.00;76.60;;;;;;5059913;28;20093;-80
2023/05/27 00:08:36;;;;;;;15.27;2.97;;;13.90;76.80;;;;;;5094427;28;20027;-80
2023/05/27 00:11:02;;;;;;;16.65;3.30;;;13.70;77.10;;;;;;5059586;28;20461;-80
2023/05/27 00:13:28;;;;;;;12.75;2.22;;;13.70;77.40;;;;;;5076739;28;20115;-80
2023/05/27 00:15:53;;;;;;;17.23;3.67;;;13.80;77.60;;;;;;5074091;28;20456;-79
2023/05/27 00:18:20;;;;;;;11.48;2.67;;;13.80;77.40;;;;;;5073849;28;20047;-80
2023/05/27 00:20:45;;;;;;;14.82;2.83;;;13.70;77.80;;;;;;5073977;28;20025;-80
2023/05/27 00:23:11;;;;;;;16.33;2.75;;;13.60;77.90;;;;;;5073728;28;20024;-80
2023/05/27 00:25:36;;;;;;;11.80;2.53;;;13.70;78.20;;;;;;5055517;28;20036;-80
2023/05/27 00:28:02;;;;;;;14.13;3.45;;;13.70;78.30;;;;;;5056542;28;20453;-80
2023/05/27 00:30:28;;;;;;;13.57;2.92;;;13.70;78.10;;;;;;5040165;28;20346;-80
2023/05/27 00:32:53;;;;;;;13.00;2.67;;;13.60;78.30;;;;;;5074182;28;20033;-80
2023/05/27 00:35:19;;;;;;;15.88;3.70;;;13.50;78.80;;;;;;5056100;28;20033;-80
2023/05/27 00:37:45;;;;;;;13.80;2.85;;;13.50;79.10;;;;;;5074062;28;20033;-80
2023/05/27 00:40:12;;;;;;;15.38;3.70;;;13.50;79.00;;;;;;5073937;28;20036;-80
2023/05/27 00:42:38;;;;;;;15.38;2.90;;;13.50;79.00;;;;;;5055384;28;20036;-80
2023/05/27 00:45:04;;;;;;;13.80;2.92;;;13.50;78.80;;;;;;5073655;28;20094;-80
2023/05/27 00:47:32;;;;;;;19.08;2.90;;;13.50;79.30;;;;;;5073893;28;20028;-80
2023/05/27 00:49:57;;;;;;;12.65;2.70;;;13.40;79.20;;;;;;5055666;28;20131;-80
2023/05/27 00:52:24;;;;;;;14.55;3.08;;;13.50;80.00;;;;;;5039046;28;20120;-80
2023/05/27 00:54:51;;;;;;;17.50;3.92;;;13.60;79.40;;;;;;5073541;28;20025;-81
2023/05/27 00:57:17;;;;;;;16.50;3.40;;;13.40;79.30;;;;;;5055295;28;20098;-80
2023/05/27 00:59:43;;;;;;;16.23;3.67;;;13.10;80.10;;;;;;5056216;28;20453;-80
2023/05/27 01:02:08;;;;;;;12.10;2.75;;;13.10;80.70;;;;;;5073563;28;20024;-80
2023/05/27 01:04:36;;;;;;;13.27;2.70;;;13.20;80.60;;;;;;5055655;28;20025;-80
2023/05/27 01:07:06;;;;;;;10.95;3.05;;;13.30;80.40;;;;;;5055296;28;20025;-79
2023/05/27 01:10:00;;;;;;;20.00;3.78;;;13.30;80.00;;;;;;5055752;28;20025;-80
2023/05/27 01:13:07;;;;;;;15.18;3.38;;;12.90;80.70;;;;;;5082233;28;20173;-80
2023/05/27 01:15:33;;;;;;;11.90;3.08;;;12.80;81.70;;;;;;5079087;28;20068;-80
2023/05/27 01:18:05;;;;;;;12.02;2.78;;;12.90;81.60;;;;;;5075469;28;20093;-80
2023/05/27 01:20:33;;;;;;;16.30;2.75;;;13.00;81.40;;;;;;5076048;28;20369;-80
2023/05/27 01:22:59;;;;;;;15.27;2.88;;;13.10;81.10;;;;;;5075308;28;20623;-80
2023/05/27 01:25:25;;;;;;;13.45;2.85;;;13.10;80.70;;;;;;5093141;28;20106;-80
2023/05/27 01:27:52;;;;;;;16.08;2.78;;;13.20;80.90;;;;;;5094087;28;20043;-79
2023/05/27 01:30:19;;;;;;;14.30;2.85;;;13.20;80.50;;;;;;5097362;28;20115;-80
2023/05/27 01:32:51;;;;;;;8.75;2.60;;;13.30;80.70;;;;;;5098304;28;20065;-80
2023/05/27 01:35:19;;;;;;;9.40;2.28;;;13.30;80.70;;;;;;5079311;28;20032;-80
2023/05/27 01:37:47;;;;;;;13.93;2.92;;;13.40;80.70;;;;;;5097559;28;20083;-80
2023/05/27 01:40:14;;;;;;;14.13;2.70;;;13.50;80.30;;;;;;5079374;28;20028;-80
2023/05/27 01:42:41;;;;;;;11.32;2.95;;;13.50;80.10;;;;;;5062709;28;20028;-80
2023/05/27 01:45:08;;;;;;;9.88;2.33;;;13.60;79.90;;;;;;5097015;28;20055;-81
2023/05/27 01:47:34;;;;;;;12.50;3.00;;;13.70;79.70;;;;;;5078979;28;20125;-80
2023/05/27 01:50:00;;;;;;;17.33;3.42;;;13.50;79.80;;;;;;5096400;28;20028;-80
2023/05/27 01:52:26;;;;;;;11.18;3.00;;;13.60;80.20;;;;;;5097029;28;20032;-80
2023/05/27 01:54:52;;;;;;;9.35;2.33;;;13.60;79.90;;;;;;5096766;28;20537;-80
2023/05/27 01:57:18;;;;;;;11.68;2.30;;;13.60;80.20;;;;;;5078805;28;20499;-80
2023/05/27 01:59:44;;;;;;;15.55;2.60;;;13.70;80.30;;;;;;5096909;28;20025;-80
2023/05/27 02:02:10;;;;;;;11.07;2.60;;;13.80;79.90;;;;;;5062129;28;20085;-80
2023/05/27 02:04:36;;;;;;;15.23;2.67;;;13.80;79.50;;;;;;5078931;28;20028;-80
2023/05/27 02:07:01;;;;;;;15.23;2.42;;;13.90;79.70;;;;;;5078793;28;20106;-80
2023/05/27 02:09:27;;;;;;;14.95;2.55;;;13.90;79.50;;;;;;5078812;28;20044;-80
2023/05/27 02:11:53;;;;;;;15.10;2.88;;;14.00;79.70;;;;;;5096849;28;20044;-80
2023/05/27 02:14:18;;;;;;;13.60;2.60;;;14.10;79.20;;;;;;5079186;28;20349;-80
2023/05/27 02:16:44;;;;;;;9.20;2.28;;;14.00;79.60;;;;;;5078259;28;20111;-80
2023/05/27 02:19:10;;;;;;;10.65;2.65;;;13.90;79.00;;;;;;5061696;28;20032;-81
2023/05/27 02:21:36;;;;;;;10.88;2.70;;;13.90;79.40;;;;;;5096371;28;20032;-80
2023/05/27 02:24:02;;;;;;;12.93;3.05;;;13.90;79.50;;;;;;5078861;28;20046;-80
2023/05/27 02:26:28;;;;;;;12.88;3.22;;;13.80;79.40;;;;;;5078752;28;20036;-80
2023/05/27 02:28:54;;;;;;;10.57;2.50;;;13.80;79.60;;;;;;5078050;28;20040;-80
2023/05/27 02:31:21;;;;;;;14.23;3.17;;;13.80;80.00;;;;;;5096372;28;20039;-80
2023/05/27 02:33:47;;;;;;;17.65;4.10;;;13.80;79.50;;;;;;5096356;28;20036;-80
2023/05/27 02:36:13;;;;;;;10.63;2.30;;;13.70;79.70;;;;;;5096016;28;20031;-80
2023/05/27 02:38:38;;;;;;;20.33;3.47;;;13.70;80.10;;;;;;5077759;28;20107;-80
2023/05/27 02:41:04;;;;;;;17.85;3.55;;;13.80;80.10;;;;;;5077708;28;20368;-80
2023/05/27 02:43:30;;;;;;;17.52;3.20;;;13.70;79.50;;;;;;5078190;28;20426;-80
2023/05/27 02:45:56;;;;;;;9.40;2.70;;;13.50;80.00;;;;;;5061293;28;20099;-80
2023/05/27 02:48:22;;;;;;;13.02;2.78;;;13.40;80.40;;;;;;5061273;28;20043;-80
2023/05/27 02:50:48;;;;;;;18.63;3.40;;;13.40;80.70;;;;;;5061142;28;20097;-77
2023/05/27 02:53:14;;;;;;;9.25;2.70;;;13.50;80.60;;;;;;5077377;28;20032;-77
2023/05/27 02:55:40;;;;;;;8.43;2.33;;;13.50;80.90;;;;;;5078045;28;20051;-77
2023/05/27 02:58:06;;;;;;;11.77;2.88;;;13.70;80.70;;;;;;5077111;28;20469;-80
2023/05/27 03:00:33;;;;;;;12.88;2.45;;;13.80;80.30;;;;;;5061142;28;20362;-78
2023/05/27 03:02:59;;;;;;;14.18;3.20;;;13.90;80.00;;;;;;5095365;28;20024;-78
2023/05/27 03:05:24;;;;;;;7.75;2.20;;;13.80;79.50;;;;;;5077302;28;20128;-77
2023/05/27 03:07:50;;;;;;;10.15;2.63;;;13.80;80.10;;;;;;5095362;28;20036;-78
2023/05/27 03:10:16;;;;;;;10.13;3.85;;;13.80;79.70;;;;;;5077434;28;20035;-78
2023/05/27 03:12:42;;;;;;;10.38;2.88;;;13.80;79.70;;;;;;5060189;28;20547;-78
2023/05/27 03:15:07;;;;;;;9.00;2.35;;;13.80;79.90;;;;;;5095730;28;20379;-77
2023/05/27 03:17:37;;;;;;;9.90;2.13;;;13.90;79.80;;;;;;5059956;28;20085;-78
2023/05/27 03:20:05;;;;;;;14.90;3.67;;;14.00;79.80;;;;;;5076731;28;20024;-78
2023/05/27 03:22:31;;;;;;;11.77;2.38;;;14.10;79.50;;;;;;5093687;28;20066;-77
2023/05/27 03:24:57;;;;;;;9.65;2.25;;;14.10;79.30;;;;;;5059817;28;20028;-77
2023/05/27 03:27:22;;;;;;;12.00;2.60;;;14.00;79.20;;;;;;5076854;28;20036;-77
2023/05/27 03:29:48;;;;;;;11.02;2.58;;;14.00;79.80;;;;;;5076944;28;20115;-78
2023/05/27 03:32:14;;;;;;;12.45;2.50;;;14.20;79.90;;;;;;5059987;28;20028;-78
2023/05/27 03:34:40;;;;;;;9.98;2.22;;;14.20;79.70;;;;;;5077008;28;20043;-78
2023/05/27 03:37:05;;;;;;;12.85;2.47;;;14.30;79.60;;;;;;5060700;28;20169;-78
2023/05/27 03:39:31;;;;;;;7.63;1.90;;;14.30;78.70;;;;;;5075721;28;20024;-78
2023/05/27 03:41:57;;;;;;;9.32;2.17;;;14.30;79.30;;;;;;5060477;28;20086;-77
2023/05/27 03:44:23;;;;;;;8.70;2.60;;;14.40;79.10;;;;;;5075977;28;20033;-78
2023/05/27 03:46:48;;;;;;;9.27;2.22;;;14.30;78.70;;;;;;5094151;28;20038;-77
2023/05/27 03:49:14;;;;;;;9.63;2.22;;;14.40;79.00;;;;;;5076303;28;20385;-79
2023/05/27 03:51:40;;;;;;;13.15;2.42;;;14.40;79.10;;;;;;5059318;28;20439;-78
2023/05/27 03:54:05;;;;;;;12.27;2.70;;;14.30;78.30;;;;;;5059428;28;20388;-78
2023/05/27 03:56:31;;;;;;;14.35;4.07;;;14.20;78.70;;;;;;5076127;28;20059;-78
2023/05/27 03:58:57;;;;;;;12.60;2.42;;;14.00;79.10;;;;;;5076162;28;20111;-78
2023/05/27 04:01:22;;;;;;;11.48;2.22;;;13.90;79.30;;;;;;5059227;28;20079;-78
2023/05/27 04:03:50;;;;;;;8.70;2.47;;;13.90;79.60;;;;;;5075948;28;20029;-78
2023/05/27 04:06:15;;;;;;;12.68;2.80;;;13.80;79.50;;;;;;5075923;28;20031;-78
2023/05/27 04:08:41;;;;;;;16.30;3.00;;;13.80;79.90;;;;;;5059644;28;20033;-78
2023/05/27 04:11:11;;;;;;;11.30;2.60;;;13.90;79.70;;;;;;5059154;28;20089;-82
2023/05/27 04:13:36;;;;;;;11.60;2.70;;;13.90;79.60;;;;;;5075909;28;20047;-79
2023/05/27 04:16:02;;;;;;;14.77;2.90;;;13.90;79.60;;;;;;5075957;28;20151;-79
2023/05/27 04:18:28;;;;;;;11.07;2.40;;;13.80;79.90;;;;;;5093679;28;20039;-78
2023/05/27 04:20:53;;;;;;;14.68;2.88;;;13.80;80.20;;;;;;5059534;28;20089;-78
2023/05/27 04:23:19;;;;;;;11.88;2.55;;;13.90;80.40;;;;;;5093428;28;20035;-78
2023/05/27 04:25:45;;;;;;;15.10;3.10;;;13.80;80.20;;;;;;5075987;28;20032;-79
2023/05/27 04:28:11;;;;;;;15.82;2.60;;;13.80;80.10;;;;;;5076024;28;20032;-78
2023/05/27 04:30:36;;;;;;;13.32;2.72;;;13.60;80.60;;;;;;5076444;28;20028;-78
2023/05/27 04:33:03;;;;;;;15.18;3.03;;;13.60;81.30;;;;;;5075868;28;20025;-79
2023/05/27 04:35:31;;;;;;;7.90;2.08;;;13.60;81.10;;;;;;5076157;28;20036;-78
2023/05/27 04:37:58;;;;;;;9.15;2.33;;;13.60;81.40;;;;;;5075639;28;20502;-78
2023/05/27 04:40:25;;;;;;;15.10;3.35;;;13.70;81.20;;;;;;5093841;28;20024;-78
2023/05/27 04:42:51;;;;;;;9.55;2.58;;;13.70;81.10;;;;;;5076064;28;20373;-78
2023/05/27 04:45:17;;;;;;;9.70;2.78;;;13.70;81.30;;;;;;5075900;28;20024;-78
2023/05/27 04:47:42;;;;;;;14.55;3.45;;;13.80;81.30;;;;;;5058196;28;20040;-78
2023/05/27 04:50:09;;;;;;;9.88;2.35;;;13.80;81.10;;;;;;5093531;28;20036;-78
2023/05/27 04:52:38;;;;;;;15.73;3.28;;;13.60;81.20;;;;;;5076078;28;20097;-79
2023/05/27 04:55:09;;;;;;;22.40;3.78;;;13.50;81.70;;;;;;5059290;28;20028;-80
2023/05/27 04:57:35;;;;;;;15.25;3.10;;;13.40;82.20;;;;;;5075581;28;20036;-79
2023/05/27 05:02:34;;;;;;;16.45;3.33;;;13.40;82.80;;;;;;5093650;28;20166;-77
2023/05/27 05:05:11;;;;;;;10.55;2.63;;;13.60;82.60;;;;;;5097902;28;20028;-78
2023/05/27 05:07:37;;;;;;;9.88;2.67;;;13.50;82.60;;;;;;5098096;28;20038;-78
2023/05/27 05:10:12;;;;;;;11.35;2.83;;;13.40;83.00;;;;;;5097843;28;20133;-80
2023/05/27 05:12:39;;;;;;;11.60;2.78;;;13.40;83.20;;;;;;5087382;28;20052;-78
2023/05/27 05:15:05;;;;;;;15.52;3.88;;;13.50;83.40;;;;;;5059660;28;20048;-79
2023/05/27 05:17:31;;;;;;;13.88;2.75;;;13.40;83.50;;;;;;5077311;28;20032;-79
2023/05/27 05:19:57;;;;;;;8.35;2.35;;;13.30;84.00;;;;;;5059228;28;20031;-79
2023/05/27 05:22:23;;;;;;;12.00;3.13;;;13.30;84.20;;;;;;5059036;28;20107;-78
2023/05/27 05:24:52;;;;;;;19.58;3.00;;;13.20;84.50;;;;;;5059322;28;20032;-77
2023/05/27 05:27:17;;;;;;;11.88;2.30;;;13.20;84.90;;;;;;5059486;28;20530;-77
2023/05/27 05:29:44;;;;;;;18.08;3.28;;;13.20;85.20;;;;;;5059690;28;20029;-77
2023/05/27 05:32:13;;;;;;;13.90;4.10;;;13.30;85.20;;;;;;5077444;28;20032;-77
2023/05/27 05:34:39;;;;;;;15.85;3.35;;;13.40;85.10;;;;;;5076970;28;20508;-77
2023/05/27 05:37:06;;;;;;;18.45;3.65;;;13.40;85.30;;;;;;5077281;28;20392;-78
2023/05/27 05:39:32;;;;;;;13.57;3.05;;;13.50;85.30;;;;;;5058891;28;20082;-77
2023/05/27 05:41:57;;;;;;;19.52;3.15;;;13.50;85.40;;;;;;5043065;28;20033;-77
2023/05/27 05:44:24;;;;;;;14.45;3.03;;;13.60;85.30;;;;;;5076842;28;20020;-77
2023/05/27 05:46:49;;;;;;;19.02;3.65;;;13.60;85.40;;;;;;5059051;28;20175;-77
2023/05/27 05:49:15;;;;;;;18.23;3.53;;;13.50;85.90;;;;;;5058730;28;20516;-78
2023/05/27 05:51:41;;;;;;;15.95;3.33;;;13.40;86.40;;;;;;5058622;28;20024;-77
2023/05/27 05:54:07;;;;;;;30.00;5.70;;;13.30;86.90;;;;;;5058603;28;20028;-77
2023/05/27 05:56:33;;;;;;;20.45;4.07;;;13.20;87.60;;;;;;5058442;28;20087;-76
2023/05/27 05:58:59;;;;;;;17.85;3.33;;;13.20;88.10;;;;;;5076459;28;20035;-77
2023/05/27 06:01:26;;;;;;;22.20;3.42;;;13.10;88.40;;;;;;5042698;28;20377;-77
2023/05/27 06:03:53;;;;;;;23.05;4.07;;;13.20;88.60;;;;;;5058418;28;20025;-75
2023/05/27 06:06:18;;;;;;;16.83;3.60;;;13.20;88.70;;;;;;5058300;28;20044;-77
2023/05/27 06:08:45;;;;;;;22.92;3.85;;;13.20;88.80;;;;;;5058434;28;20358;-77
2023/05/27 06:11:11;;;;;;;17.98;3.50;;;13.20;89.00;;;;;;5076485;28;20025;-78
2023/05/27 06:13:37;;;;;;;22.50;3.78;;;13.30;89.10;;;;;;5095737;28;20055;-77
2023/05/27 06:16:03;;;;;;;18.80;3.53;;;13.40;88.80;;;;;;5060497;28;20433;-76
2023/05/27 06:18:28;;;;;;;13.70;3.00;;;13.40;88.60;;;;;;5096403;28;20032;-77
2023/05/27 06:20:54;;;;;;;21.30;4.28;;;13.50;88.50;;;;;;5096343;28;20029;-77
2023/05/27 06:23:19;;;;;;;15.20;3.30;;;13.50;88.30;;;;;;5096589;28;20089;-77
2023/05/27 06:25:45;;;;;;;16.13;3.20;;;13.50;88.30;;;;;;5095880;28;20032;-77
2023/05/27 06:28:11;;;;;;;22.63;3.90;;;13.60;87.90;;;;;;5061346;28;20032;-77
2023/05/27 06:30:37;;;;;;;17.92;3.42;;;13.80;88.00;;;;;;5078004;28;20028;-77
2023/05/27 06:33:03;;;;;;;13.95;3.35;;;13.90;87.70;;;;;;5078096;28;20086;-77
2023/05/27 06:35:29;;;;;;;26.48;4.57;;;14.00;87.40;;;;;;5077989;28;20032;-77
2023/05/27 06:37:55;;;;;;;16.33;3.13;;;14.20;87.40;;;;;;5078216;28;20416;-78
2023/05/27 06:40:20;;;;;;;17.70;3.45;;;14.20;87.00;;;;;;5061270;28;20024;-77
2023/05/27 06:42:46;;;;;;;19.13;4.20;;;14.30;86.80;;;;;;5078046;28;20365;-78
2023/05/27 06:45:12;;;;;;;20.55;3.75;;;14.30;86.00;;;;;;5077712;28;20025;-78
2023/05/27 06:47:38;;;;;;;21.10;3.90;;;14.30;86.00;;;;;;5077734;28;20497;-78
2023/05/27 06:50:05;;;;;;;15.93;3.28;;;14.40;85.50;;;;;;5077869;28;20040;-78
2023/05/27 06:52:30;;;;;;;19.42;3.90;;;14.50;85.50;;;;;;5077784;28;20037;-76
2023/05/27 06:54:56;;;;;;;17.00;3.78;;;14.50;85.30;;;;;;5096044;28;20468;-78
2023/05/27 06:57:21;;;;;;;17.83;4.00;;;14.50;85.40;;;;;;5077499;28;20388;-77
2023/05/27 06:59:47;;;;;;;22.42;4.88;;;14.60;85.90;;;;;;5078021;28;20070;-77
2023/05/27 07:02:13;;;;;;;11.55;2.95;;;14.70;86.10;;;;;;5060746;28;20035;-78
2023/05/27 07:04:39;;;;;;;17.23;4.25;;;14.70;86.10;;;;;;5077204;28;20032;-78
2023/05/27 07:07:05;;;;;;;17.48;4.07;;;14.70;85.50;;;;;;5077483;28;20038;-79
2023/05/27 07:09:31;;;;;;;17.30;5.13;;;14.70;84.90;;;;;;5095460;28;20126;-77
2023/05/27 07:11:57;;;;;;;17.05;3.78;;;14.80;85.70;;;;;;5076880;28;20120;-78
2023/05/27 07:14:23;;;;;;;17.73;4.40;;;14.80;85.30;;;;;;5077180;28;20024;-78
2023/05/27 07:16:48;;;;;;;14.25;3.72;;;14.90;85.10;;;;;;5060469;28;20490;-78
2023/05/27 07:19:14;;;;;;;16.80;3.72;;;15.00;85.20;;;;;;5061070;28;20445;-78
2023/05/27 07:21:40;;;;;;;17.42;3.78;;;15.20;85.00;;;;;;5060428;28;20032;-77
2023/05/27 07:24:05;;;;;;;17.83;4.20;;;15.20;84.30;;;;;;5077364;28;20084;-79
2023/05/27 07:26:32;;;;;;;14.70;3.83;;;15.30;84.10;;;;;;5060081;28;20506;-78
2023/05/27 07:28:59;;;;;;;18.88;3.65;;;15.40;85.10;;;;;;5095039;28;20040;-77
2023/05/27 07:31:27;;;;;;;17.52;4.22;;;15.50;83.30;;;;;;5077129;28;20108;-78
2023/05/27 07:33:53;;;;;;;22.10;3.92;;;15.50;83.80;;;;;;5077154;28;20039;-78
2023/05/27 07:36:18;;;;;;;19.52;4.43;;;15.60;83.80;;;;;;5094732;28;20044;-78
2023/05/27 07:38:44;;;;;;;21.77;5.00;;;15.70;83.70;;;;;;5076734;28;20032;-78
2023/05/27 07:41:10;;;;;;;21.20;4.53;;;15.90;84.00;;;;;;5059716;28;20028;-77
2023/05/27 07:43:36;;;;;;;18.02;3.58;;;16.00;82.40;;;;;;5076759;28;20131;-78
2023/05/27 07:46:02;;;;;;;20.27;4.30;;;16.00;82.20;;;;;;5060507;28;20185;-76
2023/05/27 07:48:28;;;;;;;13.35;3.60;;;16.10;81.50;;;;;;5076112;28;20036;-76
2023/05/27 07:50:54;;;;;;;15.55;3.45;;;16.00;81.40;;;;;;5094458;28;20020;-77
2023/05/27 07:53:20;;;;;;;15.77;3.65;;;16.10;81.50;;;;;;5076631;28;20024;-76
2023/05/27 07:55:46;;;;;;;16.50;4.15;;;16.20;81.50;;;;;;5077118;28;20029;-76
2023/05/27 07:58:12;;;;;;;19.63;4.22;;;16.30;81.80;;;;;;5076340;28;20028;-78
2023/05/27 08:00:44;;;;;;;17.73;4.25;;;16.30;81.80;;;;;;5060650;28;20109;-78
2023/05/27 08:03:10;;;;;;;14.48;3.20;;;16.40;81.30;;;;;;5075964;28;20024;-78
2023/05/27 08:05:36;;;;;;;18.25;3.75;;;16.60;82.10;;;;;;5060120;28;20032;-78
2023/05/27 08:08:02;;;;;;;19.08;5.22;;;16.70;80.50;;;;;;5059504;28;20053;-77
2023/05/27 08:10:27;;;;;;;18.20;4.88;;;16.80;80.50;;;;;;5076809;28;20055;-77
2023/05/27 08:12:53;;;;;;;20.55;5.07;;;16.90;80.10;;;;;;5081584;28;20045;-76
2023/05/27 08:15:19;;;;;;;19.55;4.63;;;16.90;79.80;;;;;;5039759;28;20087;-77
2023/05/27 08:17:44;;;;;;;19.15;4.57;;;16.90;80.00;;;;;;5056451;28;20024;-77
2023/05/27 08:20:10;;;;;;;18.17;5.38;;;17.00;79.70;;;;;;5055660;28;20035;-77
2023/05/27 08:22:36;;;;;;;23.50;4.95;;;17.10;79.60;;;;;;5073740;28;20477;-77
2023/05/27 08:25:03;;;;;;;16.77;4.93;;;17.10;80.10;;;;;;5055791;28;20441;-76
2023/05/27 08:27:51;;;;;;;17.17;4.18;;;17.10;80.50;;;;;;5055687;28;20128;-78
2023/05/27 08:30:18;;;;;;;18.70;4.55;;;17.30;79.50;;;;;;5055599;28;20103;-78
2023/05/27 08:32:44;;;;;;;17.20;4.93;;;17.30;80.00;;;;;;5022456;28;20090;-78
2023/05/27 08:35:10;;;;;;;19.80;5.45;;;17.40;80.40;;;;;;5073850;28;20029;-78
2023/05/27 08:37:37;;;;;;;20.25;5.07;;;17.40;80.00;;;;;;5055848;28;20025;-78
2023/05/27 08:40:07;;;;;;;18.15;5.07;;;17.50;79.40;;;;;;5039204;28;20052;-78
2023/05/27 08:42:33;;;;;;;17.70;5.03;;;17.60;79.20;;;;;;5056381;28;20089;-78
2023/05/27 08:45:00;;;;;;;19.60;5.38;;;17.70;79.30;;;;;;5055735;28;20040;-78
2023/05/27 08:47:28;;;;;;;23.60;6.00;;;17.80;78.70;;;;;;5055687;28;20110;-80
2023/05/27 08:49:53;;;;;;;18.30;4.75;;;17.90;79.10;;;;;;5055690;28;20040;-79
2023/05/27 08:52:20;;;;;;;18.60;4.40;;;18.00;78.80;;;;;;5055302;28;20492;-79
2023/05/27 08:54:47;;;;;;;18.80;5.00;;;18.00;79.00;;;;;;5073335;28;20020;-77
2023/05/27 08:57:15;;;;;;;14.18;5.00;;;18.00;79.10;;;;;;5073595;28;20032;-78
2023/05/27 08:59:42;;;;;;;17.67;5.63;;;18.20;78.40;;;;;;5071865;28;20021;-78
2023/05/27 09:02:11;;;;;;;15.77;4.97;;;18.40;77.50;;;;;;5039099;28;20542;-78
2023/05/27 09:04:39;;;;;;;20.08;5.70;;;18.50;76.40;;;;;;5056165;28;20082;-78
2023/05/27 09:07:05;;;;;;;19.45;5.53;;;18.50;75.50;;;;;;5055552;28;20064;-77
2023/05/27 09:09:31;;;;;;;18.35;5.22;;;18.50;75.10;;;;;;5055243;28;20469;-77
2023/05/27 09:12:02;;;;;;;19.25;4.97;;;18.60;77.00;;;;;;5038285;28;20056;-77
2023/05/27 09:14:31;;;;;;;17.10;4.88;;;18.70;76.20;;;;;;5038605;28;20032;-76
2023/05/27 09:16:57;;;;;;;23.15;5.03;;;18.70;75.80;;;;;;5055393;28;20029;-76
2023/05/27 09:19:23;;;;;;;19.15;4.15;;;18.90;75.20;;;;;;5055627;28;20040;-77
2023/05/27 09:21:52;;;;;;;18.00;4.97;;;18.90;73.80;;;;;;5073248;28;20025;-77
2023/05/27 09:24:18;;;;;;;20.13;4.47;;;18.90;75.20;;;;;;5038596;28;20043;-77
2023/05/27 09:26:44;;;;;;;17.10;4.20;;;19.00;75.20;;;;;;5055383;28;20033;-77
2023/05/27 09:29:10;;;;;;;18.63;5.38;;;19.10;74.20;;;;;;5039221;28;20036;-77
2023/05/27 09:31:40;;;;;;;21.10;5.50;;;19.20;74.20;;;;;;5072740;28;20028;-77
2023/05/27 09:34:13;;;;;;;14.30;4.50;;;19.30;74.20;;;;;;5038527;28;20101;-78
2023/05/27 09:36:46;;;;;;;15.35;4.72;;;19.30;74.20;;;;;;5038985;28;20040;-77
2023/05/27 09:39:14;;;;;;;13.48;3.75;;;19.40;73.90;;;;;;5055747;28;20029;-78
2023/05/27 09:41:40;;;;;;;16.58;4.65;;;19.60;73.20;;;;;;5073477;28;20029;-77
2023/05/27 09:44:05;;;;;;;19.95;5.65;;;19.70;73.00;;;;;;5039670;28;20051;-78
2023/05/27 09:46:33;;;;;;;23.33;5.53;;;19.60;74.10;;;;;;5038231;28;20032;-77
2023/05/27 09:49:02;;;;;;;16.52;5.03;;;19.60;73.90;;;;;;5074372;28;20111;-78
2023/05/27 09:51:28;;;;;;;18.10;4.70;;;19.50;74.40;;;;;;5058736;28;20028;-77
2023/05/27 09:53:57;;;;;;;17.90;4.90;;;19.70;73.40;;;;;;5042800;28;20445;-77
2023/05/27 09:56:27;;;;;;;17.00;4.68;;;19.80;73.70;;;;;;5076614;28;20116;-78
2023/05/27 09:58:57;;;;;;;17.38;5.25;;;20.00;72.30;;;;;;5076859;28;20032;-78
2023/05/27 10:01:28;;;;;;;16.73;4.63;;;20.00;71.30;;;;;;5058813;28;20028;-78
2023/05/27 10:03:59;;;;;;;15.13;4.65;;;20.20;71.20;;;;;;5059021;28;20369;-76
2023/05/27 10:06:29;;;;;;;18.40;4.60;;;20.30;70.50;;;;;;5059014;28;20024;-79
2023/05/27 10:08:55;;;;;;;17.73;5.35;;;20.20;71.90;;;;;;5042720;28;20469;-77
2023/05/27 10:11:22;;;;;;;19.50;4.95;;;20.30;70.70;;;;;;5058149;28;20457;-77
2023/05/27 10:13:48;;;;;;;19.70;5.10;;;20.40;70.80;;;;;;5041541;28;20130;-77
2023/05/27 10:16:27;;;;;;;11.55;3.85;;;20.60;70.20;;;;;;5058469;28;20032;-77
2023/05/27 10:18:54;;;;;;;18.00;4.47;;;20.70;70.90;;;;;;5057858;28;20025;-77
2023/05/27 10:21:22;;;;;;;12.95;4.05;;;20.80;71.00;;;;;;5041500;28;20036;-77
2023/05/27 10:23:58;;;;;;;14.02;4.10;;;20.80;69.50;;;;;;5042442;28;20056;-77
2023/05/27 10:26:40;;;;;;;15.65;4.50;;;20.90;69.10;;;;;;5075834;28;20381;-77
2023/05/27 10:29:09;;;;;;;;;;;20.80;68.10;;;;;;5058431;28;20055;-78
2023/05/27 10:31:39;;;;;;;19.00;4.45;;;20.80;68.40;;;;;;5075959;28;19908;-78
2023/05/27 10:34:08;;;;;;;14.48;3.45;;;20.90;66.10;;;;;;5041737;28;20440;-77
2023/05/27 10:36:36;;;;;;;16.98;4.43;;;20.90;67.40;;;;;;5057608;28;20044;-77
2023/05/27 10:39:05;;;;;;;18.17;4.07;;;21.00;67.60;;;;;;5041428;28;20028;-77
2023/05/27 10:42:03;;;;;;;13.95;3.63;;;21.20;69.10;;;;;;5040955;28;20028;-77
2023/05/27 10:44:30;;;;;;;19.05;4.43;;;21.30;67.70;;;;;;5024959;28;20043;-78
2023/05/27 10:47:13;;;;;;;14.45;3.20;;;21.50;66.70;;;;;;5075446;28;20373;-77
2023/05/27 10:49:40;;;;;;;13.35;3.78;;;21.70;63.90;;;;;;5075614;28;20068;-78
2023/05/27 10:52:12;;;;;;;22.05;4.25;;;21.70;62.50;;;;;;5075898;28;20032;-79
2023/05/27 10:54:38;;;;;;;13.48;3.50;;;21.70;64.00;;;;;;5058164;28;20566;-78
2023/05/27 10:57:06;;;;;;;17.48;4.22;;;21.60;63.20;;;;;;5058211;28;20028;-77
2023/05/27 10:59:49;;;;;;;12.35;4.07;;;21.70;63.70;;;;;;5075398;28;20029;-78
2023/05/27 11:02:15;;;;;;;16.25;4.38;;;21.50;63.50;;;;;;5075073;28;20020;-77
2023/05/27 11:04:42;;;;;;;17.02;4.57;;;21.60;62.60;;;;;;5057501;28;20476;-77
2023/05/27 11:07:08;;;;;;;11.95;3.67;;;21.60;62.20;;;;;;5075438;28;20048;-77
2023/05/27 11:09:47;;;;;;;12.65;3.63;;;21.70;64.10;;;;;;5056980;28;20032;-78
2023/05/27 11:12:18;;;;;;;13.60;4.30;;;21.70;63.80;;;;;;5040589;28;20516;-78
2023/05/27 11:14:49;;;;;;;13.25;3.97;;;21.80;63.40;;;;;;5057078;28;20033;-77
2023/05/27 11:17:15;;;;;;;13.17;3.93;;;21.80;62.10;;;;;;5075239;28;20025;-77
2023/05/27 11:19:42;;;;;;;15.07;4.15;;;21.90;63.10;;;;;;5058312;28;20267;-76
2023/05/27 11:22:08;;;;;;;17.83;4.50;;;22.00;63.90;;;;;;5074024;28;20051;-78
2023/05/27 11:24:36;;;;;;;13.90;3.95;;;22.10;63.90;;;;;;5075635;28;20037;-77
2023/05/27 11:27:09;;;;;;;15.23;4.07;;;22.20;63.20;;;;;;5057756;28;20435;-77
2023/05/27 11:29:36;;;;;;;19.88;5.10;;;22.30;61.90;;;;;;5057790;28;20028;-78
2023/05/27 11:32:02;;;;;;;16.88;4.45;;;22.30;62.20;;;;;;5057419;28;20061;-77
2023/05/27 11:34:28;;;;;;;20.77;4.50;;;22.30;62.70;;;;;;5058676;28;20380;-77
2023/05/27 11:36:55;;;;;;;15.38;3.60;;;22.40;63.10;;;;;;5074843;28;20036;-77
2023/05/27 11:39:21;;;;;;;13.82;4.07;;;22.60;62.30;;;;;;5058584;28;20453;-77
2023/05/27 11:41:50;;;;;;;16.05;4.20;;;22.70;63.60;;;;;;5058224;28;20120;-77
2023/05/27 11:44:17;;;;;;;14.18;4.18;;;22.80;59.50;;;;;;5058617;28;20373;-77
2023/05/27 11:46:44;;;;;;;10.40;3.10;;;22.80;57.60;;;;;;5058472;28;20376;-78
2023/05/27 11:49:12;;;;;;;14.52;4.00;;;22.70;57.30;;;;;;5058622;28;20175;-77
2023/05/27 11:51:42;;;;;;;12.75;3.40;;;22.70;56.90;;;;;;5058329;28;20040;-78
2023/05/27 11:54:20;;;;;;;14.75;4.15;;;22.70;57.70;;;;;;5042295;28;20085;-78
2023/05/27 11:56:47;;;;;;;9.85;3.47;;;22.70;58.00;;;;;;5057848;28;20035;-78
2023/05/27 11:59:13;;;;;;;13.57;3.83;;;22.70;57.20;;;;;;5075013;28;20047;-78
2023/05/27 12:01:40;;;;;;;12.30;4.00;;;22.70;57.00;;;;;;5058141;28;20034;-76
2023/05/27 12:04:06;;;;;;;14.18;3.92;;;22.80;57.80;;;;;;5074397;28;20025;-76
2023/05/27 12:06:32;;;;;;;17.48;4.40;;;22.80;56.90;;;;;;5057356;28;20033;-76
2023/05/27 12:08:58;;;;;;;13.65;3.72;;;22.80;57.50;;;;;;5057372;28;20500;-76
2023/05/27 12:11:24;;;;;;;12.80;3.67;;;22.90;58.50;;;;;;5056634;28;20025;-77
2023/05/27 12:13:51;;;;;;;11.52;3.65;;;23.00;56.90;;;;;;5059765;28;20366;-77
2023/05/27 12:16:17;;;;;;;9.85;3.63;;;23.10;57.30;;;;;;5059609;28;20039;-77
2023/05/27 12:18:42;;;;;;;13.13;3.17;;;23.20;57.30;;;;;;5059087;28;20036;-76
2023/05/27 12:21:08;;;;;;;15.15;3.97;;;23.30;57.30;;;;;;5075991;28;20059;-76
2023/05/27 12:23:34;;;;;;;12.38;3.92;;;23.40;56.80;;;;;;5059399;28;20031;-76
2023/05/27 12:26:00;;;;;;;11.63;3.88;;;23.40;56.30;;;;;;5076333;28;20073;-76
2023/05/27 12:28:26;;;;;;;12.50;3.10;;;23.50;56.20;;;;;;5076435;28;20028;-76
2023/05/27 12:30:51;;;;;;;14.90;3.75;;;23.50;54.80;;;;;;5059510;28;20028;-76
2023/05/27 12:33:17;;;;;;;10.60;4.03;;;23.70;56.30;;;;;;5075599;28;20025;-78
2023/05/27 12:35:43;;;;;;;12.27;3.40;;;23.80;57.80;;;;;;5059085;28;20032;-78
2023/05/27 12:38:08;;;;;;;12.73;3.80;;;23.80;55.20;;;;;;5075987;28;20028;-77
2023/05/27 12:40:35;;;;;;;14.02;3.90;;;23.90;53.90;;;;;;5076140;28;20028;-78